This is the latest recevied weather packets stored in our database for station/object NY5V. If no packets are shown the sender has not sent any weather packets the latest 1 day(s).
| Time | Temp. | Humidity | Pressure | Rain* | Wind** | Luminosity | Snow |
|---|---|---|---|---|---|---|---|
| 1778029319 | 26.67° C | 81% | 1006.1 hPa | 0 mm | 0.45 m/s, 37° | 1 W/m² | - |
| 1778028719 | 27.22° C | 80% | 1006.2 hPa | 0 mm | 0 m/s | 4 W/m² | - |
| 1778028119 | 27.22° C | 79% | 1005.4 hPa | 0 mm | 0.45 m/s, 43° | 8 W/m² | - |
| 1778027516 | 27.22° C | 79% | 1005.7 hPa | 0 mm | 0.45 m/s, 347° | 12 W/m² | - |
| 1778026914 | 27.22° C | 78% | 1005.5 hPa | 0 mm | 0.45 m/s, 36° | 13 W/m² | - |
| 1778026314 | 27.78° C | 77% | 1005.7 hPa | 0 mm | 0 m/s | 17 W/m² | - |
| 1778025708 | 27.78° C | 77% | 1005.5 hPa | 0 mm | 0.45 m/s, 26° | 25 W/m² | - |
| 1778025109 | 27.78° C | 76% | 1005.5 hPa | 0 mm | 2.68 m/s, 256° | 35 W/m² | - |
| 1778024508 | 27.78° C | 76% | 1005.3 hPa | 0 mm | 0.45 m/s, 43° | 41 W/m² | - |
| 1778023908 | 27.78° C | 76% | 1005.4 hPa | 0 mm | 0.45 m/s, 40° | 41 W/m² | - |
| 1778023303 | 28.33° C | 75% | 1005.4 hPa | 0 mm | 0.89 m/s, 52° | 40 W/m² | - |
| 1778022699 | 28.33° C | 75% | 1005.4 hPa | 0 mm | 0.89 m/s, 44° | 54 W/m² | - |
| 1778022098 | 28.33° C | 74% | 1005.3 hPa | 0 mm | 1.79 m/s, 305° | 51 W/m² | - |
| 1778021497 | 28.33° C | 74% | 1005 hPa | 0 mm | 0.45 m/s, 40° | 48 W/m² | - |
| 1778020897 | 28.33° C | 74% | 1005.1 hPa | 0 mm | 0.45 m/s, 38° | 61 W/m² | - |
| 1778020296 | 28.33° C | 75% | 1005.1 hPa | 0 mm | 0 m/s | 71 W/m² | - |
| 1778019694 | 28.33° C | 73% | 1004.8 hPa | 0 mm | 1.34 m/s, 315° | 56 W/m² | - |
| 1778019094 | 28.89° C | 74% | 1004.8 hPa | 0 mm | 0.45 m/s, 6° | 85 W/m² | - |
| 1778018489 | 28.33° C | 73% | 1005.2 hPa | 0 mm | 0.89 m/s, 45° | 56 W/m² | - |
| 1778017885 | 27.78° C | 74% | 1005.4 hPa | 0 mm | 1.34 m/s, 270° | 88 W/m² | - |
| 1778017279 | 28.33° C | 75% | 1005.5 hPa | 0 mm | 2.68 m/s, 303° | 66 W/m² | - |
| 1778016678 | 27.78° C | 76% | 1005.8 hPa | 0 mm | 0.89 m/s, 33° | 86 W/m² | - |
| 1778016078 | 28.33° C | 75% | 1006.1 hPa | 0 mm | 1.34 m/s, 37° | 82 W/m² | - |
| 1778015478 | 27.78° C | 75% | 1006 hPa | 0 mm | 1.79 m/s, 41° | 89 W/m² | - |
| 1778014877 | 28.33° C | 75% | 1006.3 hPa | 0 mm | 1.34 m/s, 347° | 76 W/m² | - |
* Rain latest hour (hover to see other rain measurements)
** Current wind speed in m/s (hover to see current wind gust speed)